Time;durP1;ratioP1;P1;durP2;ratioP2;P2;SDS_P1;SDS_P2;PMS_P1;PMS_P2;Temp;Humidity;BMP_temperature;BMP_pressure;BME280_temperature;BME280_humidity;BME280_pressure;Samples;Min_cycle;Max_cycle;Signal;HPM_P1;HPM_P2
2022/03/18 00:01:32;;;;;;;1.98;0.88;;;;;;;;;;5016255;28;20045;-87
2022/03/18 00:03:59;;;;;;;2.45;1.17;;;;;;;;;;5013814;28;20017;-86
2022/03/18 00:06:31;;;;;;;2.50;1.30;;;;;;;;;;5034894;28;20029;-86
2022/03/18 00:08:58;;;;;;;1.80;0.90;;;;;;;;;;5013853;28;20499;-87
2022/03/18 00:11:25;;;;;;;3.50;1.60;;;;;;;;;;5017835;28;20029;-88
2022/03/18 00:13:51;;;;;;;4.75;2.13;;;;;;;;;;5021931;28;20025;-88
2022/03/18 00:16:18;;;;;;;6.32;2.30;;;;;;;;;;5017348;28;20030;-87
2022/03/18 00:18:44;;;;;;;5.15;2.45;;;;;;;;;;5016361;28;20021;-87
2022/03/18 00:21:37;;;;;;;6.05;2.70;;;;;;;;;;5007652;28;20026;-87
2022/03/18 00:24:04;;;;;;;6.32;3.45;;;;;;;;;;5000849;28;20492;-87
2022/03/18 00:26:33;;;;;;;6.35;3.50;;;;;;;;;;5013612;28;20026;-86
2022/03/18 00:29:00;;;;;;;7.70;3.85;;;;;;;;;;5033575;28;20078;-87
2022/03/18 00:31:32;;;;;;;8.20;4.32;;;;;;;;;;5010044;28;20023;-86
2022/03/18 00:33:58;;;;;;;7.75;4.75;;;;;;;;;;5029925;28;20025;-86
2022/03/18 00:36:25;;;;;;;8.40;4.60;;;;;;;;;;5028602;28;20042;-87
2022/03/18 00:38:55;;;;;;;9.25;5.18;;;;;;;;;;4999472;28;20030;-86
2022/03/18 00:41:21;;;;;;;8.30;5.07;;;;;;;;;;5023331;28;20041;-85
2022/03/18 00:43:57;;;;;;;10.38;4.95;;;;;;;;;;5010647;28;20026;-86
2022/03/18 00:46:24;;;;;;;10.98;6.15;;;;;;;;;;5010095;28;20101;-85
2022/03/18 00:52:06;;;;;;;9.88;6.97;;;;;;;;;;5007634;28;20029;-88
2022/03/18 00:54:34;;;;;;;16.20;7.57;;;;;;;;;;5011030;28;20053;-89
2022/03/18 00:57:13;;;;;;;13.25;7.43;;;;;;;;;;5006020;28;20516;-88
2022/03/18 00:59:51;;;;;;;14.57;8.60;;;;;;;;;;5006614;28;20021;-88
2022/03/18 01:02:18;;;;;;;13.00;8.13;;;;;;;;;;5003519;28;20025;-88
2022/03/18 01:04:54;;;;;;;17.08;9.30;;;;;;;;;;5027551;28;20026;-88
2022/03/18 01:07:20;;;;;;;16.92;9.70;;;;;;;;;;5007615;28;20088;-88
2022/03/18 01:09:48;;;;;;;14.70;8.60;;;;;;;;;;5009767;28;20362;-86
2022/03/18 01:12:18;;;;;;;20.90;10.70;;;;;;;;;;4303409;28;10000003;-86
2022/03/18 01:14:44;;;;;;;17.10;9.65;;;;;;;;;;5022761;28;20291;-86
2022/03/18 01:17:12;;;;;;;15.27;8.90;;;;;;;;;;5012941;28;20393;-86
2022/03/18 01:19:47;;;;;;;19.83;9.73;;;;;;;;;;5010666;28;20109;-87
2022/03/18 01:22:18;;;;;;;12.75;7.88;;;;;;;;;;5013990;28;20441;-87
2022/03/18 01:24:44;;;;;;;17.42;8.43;;;;;;;;;;5029369;28;20044;-89
2022/03/18 01:30:14;;;;;;;13.77;7.90;;;;;;;;;;4999286;28;20020;-89
2022/03/18 01:33:01;;;;;;;13.10;6.82;;;;;;;;;;5013405;28;20080;-89
2022/03/18 01:35:28;;;;;;;17.58;9.50;;;;;;;;;;5025068;28;20051;-90
2022/03/18 01:37:54;;;;;;;14.63;7.82;;;;;;;;;;5004861;28;20022;-90
2022/03/18 01:40:21;;;;;;;15.68;8.50;;;;;;;;;;5019541;28;20074;-88
2022/03/18 01:42:47;;;;;;;33.53;18.67;;;;;;;;;;5021214;28;20117;-91
2022/03/18 01:45:15;;;;;;;35.60;18.38;;;;;;;;;;5025880;28;20032;-91
2022/03/18 01:47:43;;;;;;;36.85;16.95;;;;;;;;;;5014183;28;20470;-91
2022/03/18 01:50:14;;;;;;;28.52;15.43;;;;;;;;;;5012934;28;20037;-91
2022/03/18 01:52:49;;;;;;;21.98;12.68;;;;;;;;;;5011875;28;20026;-88
2022/03/18 01:55:16;;;;;;;28.67;14.15;;;;;;;;;;5007613;28;20136;-89
2022/03/18 01:57:56;;;;;;;19.73;11.25;;;;;;;;;;5023597;28;20487;-88
2022/03/18 02:00:26;;;;;;;19.20;10.93;;;;;;;;;;5011903;28;20026;-88
2022/03/18 02:02:54;;;;;;;19.88;10.95;;;;;;;;;;5003400;28;20053;-88
2022/03/18 02:05:21;;;;;;;19.23;10.35;;;;;;;;;;5017929;28;20030;-89
2022/03/18 02:07:48;;;;;;;18.83;10.88;;;;;;;;;;5011697;28;20049;-87
2022/03/18 02:10:15;;;;;;;41.60;18.92;;;;;;;;;;5008376;28;20571;-88
2022/03/18 02:12:41;;;;;;;37.90;16.50;;;;;;;;;;5020216;28;20358;-89
2022/03/18 02:15:09;;;;;;;25.92;12.40;;;;;;;;;;4997109;28;20038;-89
2022/03/18 02:17:37;;;;;;;22.58;10.55;;;;;;;;;;5000055;28;20438;-90
2022/03/18 02:20:04;;;;;;;22.27;10.77;;;;;;;;;;5011510;28;20049;-88
2022/03/18 02:22:41;;;;;;;26.55;11.82;;;;;;;;;;5020393;28;20022;-88
2022/03/18 02:25:15;;;;;;;26.08;12.65;;;;;;;;;;5001815;28;20026;-90
2022/03/18 02:27:53;;;;;;;25.13;12.07;;;;;;;;;;5004304;28;20029;-89
2022/03/18 02:30:19;;;;;;;27.40;13.15;;;;;;;;;;5006783;28;20029;-89
2022/03/18 02:32:47;;;;;;;26.60;13.20;;;;;;;;;;5010449;28;20105;-90
2022/03/18 02:35:13;;;;;;;27.52;13.73;;;;;;;;;;5010390;28;20034;-88
2022/03/18 02:37:39;;;;;;;24.67;13.02;;;;;;;;;;5028881;28;20065;-89
2022/03/18 02:40:06;;;;;;;22.45;11.30;;;;;;;;;;5007929;28;20073;-89
2022/03/18 02:42:32;;;;;;;23.30;11.45;;;;;;;;;;5011031;28;20018;-89
2022/03/18 02:45:00;;;;;;;25.50;13.15;;;;;;;;;;5003260;28;20049;-90
2022/03/18 02:47:27;;;;;;;28.45;14.45;;;;;;;;;;5013691;28;20116;-91
2022/03/18 02:50:03;;;;;;;29.65;15.77;;;;;;;;;;5013311;28;20032;-93
2022/03/18 02:52:33;;;;;;;30.45;16.20;;;;;;;;;;5012853;28;20048;-90
2022/03/18 02:55:00;;;;;;;32.00;17.10;;;;;;;;;;5013446;28;20465;-92
2022/03/18 02:57:27;;;;;;;33.17;16.92;;;;;;;;;;5027007;28;20033;-93
2022/03/18 02:59:54;;;;;;;31.85;14.35;;;;;;;;;;5031449;28;20068;-93
2022/03/18 03:02:21;;;;;;;30.55;13.95;;;;;;;;;;5011575;28;20036;-93
2022/03/18 03:10:22;;;;;;;36.13;15.85;;;;;;;;;;5029200;28;20091;-90
2022/03/18 03:12:48;;;;;;;30.55;13.73;;;;;;;;;;5015664;28;20025;-91
2022/03/18 03:15:15;;;;;;;25.42;11.35;;;;;;;;;;5015777;28;20059;-90
2022/03/18 03:17:41;;;;;;;24.02;11.07;;;;;;;;;;5027519;28;20036;-90
2022/03/18 03:20:08;;;;;;;16.92;8.18;;;;;;;;;;5009420;28;20033;-89
2022/03/18 03:22:35;;;;;;;16.98;8.15;;;;;;;;;;5027409;28;20160;-88
2022/03/18 03:25:07;;;;;;;22.90;8.70;;;;;;;;;;5026728;28;20022;-89
2022/03/18 03:27:33;;;;;;;25.92;10.30;;;;;;;;;;5032361;28;20380;-89
2022/03/18 03:30:03;;;;;;;24.15;10.10;;;;;;;;;;5030553;28;20143;-88
2022/03/18 03:32:30;;;;;;;25.52;10.45;;;;;;;;;;5007979;28;20022;-88
2022/03/18 03:35:05;;;;;;;22.52;9.40;;;;;;;;;;5008156;28;20029;-87
2022/03/18 03:37:31;;;;;;;15.25;6.50;;;;;;;;;;5006945;28;20104;-86
2022/03/18 03:40:03;;;;;;;14.50;6.07;;;;;;;;;;5005747;28;20076;-87
2022/03/18 03:42:32;;;;;;;9.68;4.80;;;;;;;;;;4991608;28;20034;-87
2022/03/18 03:44:59;;;;;;;12.80;6.32;;;;;;;;;;5000326;28;20113;-86
2022/03/18 03:47:25;;;;;;;12.93;6.15;;;;;;;;;;5012306;28;20121;-89
2022/03/18 03:49:56;;;;;;;13.93;6.65;;;;;;;;;;4998142;28;20775;-89
2022/03/18 03:52:23;;;;;;;15.90;7.70;;;;;;;;;;5004811;28;20031;-88
2022/03/18 03:54:51;;;;;;;16.13;8.50;;;;;;;;;;4996561;28;20393;-88
2022/03/18 03:57:17;;;;;;;23.73;11.75;;;;;;;;;;4996668;28;20472;-88
2022/03/18 03:59:44;;;;;;;23.38;12.38;;;;;;;;;;5010448;28;20397;-89
2022/03/18 04:02:14;;;;;;;22.60;11.77;;;;;;;;;;5003980;28;20426;-87
2022/03/18 04:04:40;;;;;;;24.90;14.48;;;;;;;;;;5011509;28;20811;-86
2022/03/18 04:07:08;;;;;;;31.02;15.20;;;;;;;;;;5007179;28;20088;-86
2022/03/18 04:09:34;;;;;;;29.55;15.13;;;;;;;;;;5008597;28;20121;-86
2022/03/18 04:12:01;;;;;;;22.55;12.45;;;;;;;;;;5012215;28;20505;-86
2022/03/18 04:14:28;;;;;;;24.85;14.32;;;;;;;;;;5001241;28;20366;-84
2022/03/18 04:16:57;;;;;;;28.63;14.05;;;;;;;;;;5010383;28;20397;-85
2022/03/18 04:19:23;;;;;;;26.75;13.55;;;;;;;;;;4996078;28;20053;-84
2022/03/18 04:21:50;;;;;;;26.80;13.85;;;;;;;;;;5009566;28;20029;-83
2022/03/18 04:24:16;;;;;;;25.23;12.95;;;;;;;;;;5017527;28;20121;-84
2022/03/18 04:26:42;;;;;;;24.50;13.85;;;;;;;;;;5010120;28;20023;-83
2022/03/18 04:29:12;;;;;;;26.58;14.95;;;;;;;;;;4995121;28;20034;-84
2022/03/18 04:31:39;;;;;;;23.63;14.60;;;;;;;;;;4992892;28;20026;-83
2022/03/18 04:34:06;;;;;;;20.65;12.27;;;;;;;;;;5008446;28;20033;-83
2022/03/18 04:36:35;;;;;;;22.83;12.80;;;;;;;;;;5020313;28;20104;-84
2022/03/18 04:39:01;;;;;;;29.00;14.20;;;;;;;;;;5029704;28;20462;-86
2022/03/18 04:41:28;;;;;;;26.17;14.68;;;;;;;;;;5028330;28;20116;-85
2022/03/18 04:43:55;;;;;;;31.08;16.75;;;;;;;;;;5012539;28;20026;-86
2022/03/18 04:46:22;;;;;;;28.10;16.35;;;;;;;;;;5011490;28;20715;-85
2022/03/18 04:48:55;;;;;;;27.45;17.15;;;;;;;;;;5008706;28;20493;-86
2022/03/18 04:51:25;;;;;;;27.20;17.75;;;;;;;;;;5025683;28;20037;-85
2022/03/18 04:53:51;;;;;;;29.85;18.73;;;;;;;;;;5007941;28;20699;-85
2022/03/18 04:59:03;;;;;;;27.13;16.42;;;;;;;;;;5002359;28;20045;-85
2022/03/18 05:01:29;;;;;;;26.75;16.55;;;;;;;;;;5011670;28;20056;-85
2022/03/18 05:03:56;;;;;;;19.20;11.85;;;;;;;;;;5004023;28;20026;-85
2022/03/18 05:06:22;;;;;;;19.80;11.45;;;;;;;;;;5011405;28;20171;-84
2022/03/18 05:08:49;;;;;;;21.10;10.95;;;;;;;;;;5011450;28;20508;-84
2022/03/18 05:11:16;;;;;;;21.33;11.85;;;;;;;;;;5028602;28;20485;-83
2022/03/18 05:13:44;;;;;;;26.58;12.90;;;;;;;;;;5028419;28;20021;-83
2022/03/18 05:16:11;;;;;;;21.05;12.38;;;;;;;;;;5016705;28;20030;-83
2022/03/18 05:18:38;;;;;;;27.42;13.15;;;;;;;;;;5026856;28;20026;-83
2022/03/18 05:21:04;;;;;;;20.63;11.15;;;;;;;;;;5012300;28;20037;-84
2022/03/18 05:23:32;;;;;;;18.58;10.38;;;;;;;;;;5003115;28;20465;-83
2022/03/18 05:25:59;;;;;;;14.23;8.13;;;;;;;;;;5005562;28;20022;-83
2022/03/18 05:28:26;;;;;;;16.20;9.68;;;;;;;;;;5010629;28;20034;-83
2022/03/18 05:30:53;;;;;;;16.17;10.00;;;;;;;;;;4316824;28;10000423;-82
2022/03/18 05:33:19;;;;;;;15.18;9.02;;;;;;;;;;5005934;28;20033;-83
2022/03/18 05:35:45;;;;;;;16.40;9.07;;;;;;;;;;5015099;28;20152;-83
2022/03/18 05:38:12;;;;;;;19.05;11.15;;;;;;;;;;5030790;28;20024;-85
2022/03/18 05:40:38;;;;;;;24.55;12.90;;;;;;;;;;5011244;28;20041;-84
2022/03/18 05:43:06;;;;;;;22.88;13.57;;;;;;;;;;5017067;28;20022;-84
2022/03/18 05:45:33;;;;;;;24.48;13.93;;;;;;;;;;5009409;28;20033;-85
2022/03/18 05:47:59;;;;;;;26.10;16.02;;;;;;;;;;5006154;28;20030;-85
2022/03/18 05:50:26;;;;;;;27.35;16.02;;;;;;;;;;5030691;28;20034;-85
2022/03/18 05:52:58;;;;;;;21.50;13.07;;;;;;;;;;5011090;28;20029;-85
2022/03/18 05:55:25;;;;;;;20.90;13.02;;;;;;;;;;5029601;28;20488;-85
2022/03/18 05:57:54;;;;;;;20.83;12.85;;;;;;;;;;5031147;28;20018;-85
2022/03/18 06:00:21;;;;;;;17.42;10.25;;;;;;;;;;5013653;28;20112;-85
2022/03/18 06:02:52;;;;;;;19.13;11.68;;;;;;;;;;5029237;28;20033;-85
2022/03/18 06:05:18;;;;;;;19.20;11.48;;;;;;;;;;5027162;28;20032;-85
2022/03/18 06:11:48;;;;;;;16.25;10.52;;;;;;;;;;5008189;28;20389;-84
2022/03/18 06:13:22;;;;;;;20.80;11.82;;;;;;;;;;5027067;28;20032;-85
2022/03/18 06:15:54;;;;;;;14.35;8.13;;;;;;;;;;5013016;28;20100;-85
2022/03/18 06:18:22;;;;;;;16.25;9.10;;;;;;;;;;4682233;28;9999828;-85
2022/03/18 06:20:52;;;;;;;17.00;9.77;;;;;;;;;;4675731;28;10000197;-85
2022/03/18 06:23:19;;;;;;;14.25;8.70;;;;;;;;;;5029526;28;20112;-85
2022/03/18 06:25:46;;;;;;;12.25;7.63;;;;;;;;;;5022349;28;20084;-85
2022/03/18 06:28:12;;;;;;;12.45;8.43;;;;;;;;;;5012220;28;20112;-85
2022/03/18 06:30:41;;;;;;;13.67;8.90;;;;;;;;;;4675810;28;10000198;-85
2022/03/18 06:33:09;;;;;;;11.18;7.70;;;;;;;;;;5010549;28;20034;-85
2022/03/18 06:35:35;;;;;;;12.70;8.30;;;;;;;;;;5030685;28;20551;-85
2022/03/18 06:38:02;;;;;;;14.05;9.43;;;;;;;;;;5006526;28;20026;-85
2022/03/18 06:40:31;;;;;;;15.32;9.82;;;;;;;;;;5007608;28;20021;-85
2022/03/18 06:43:06;;;;;;;16.42;10.40;;;;;;;;;;5006058;28;20112;-85
2022/03/18 06:45:32;;;;;;;17.67;11.80;;;;;;;;;;5013928;28;20386;-85
2022/03/18 06:48:00;;;;;;;19.10;12.10;;;;;;;;;;5021554;28;20381;-85
2022/03/18 06:50:26;;;;;;;18.45;11.77;;;;;;;;;;5014762;28;20022;-86
2022/03/18 06:52:53;;;;;;;19.02;11.10;;;;;;;;;;5017246;28;20504;-86
2022/03/18 06:55:20;;;;;;;15.88;10.48;;;;;;;;;;5016068;28;20030;-86
2022/03/18 06:57:47;;;;;;;16.02;10.80;;;;;;;;;;5014997;28;20050;-89
2022/03/18 07:00:14;;;;;;;18.75;12.73;;;;;;;;;;5036283;28;20034;-88
2022/03/18 07:02:41;;;;;;;17.23;12.25;;;;;;;;;;5017640;28;20021;-87
2022/03/18 07:05:12;;;;;;;15.70;11.00;;;;;;;;;;5017713;28;20029;-88
2022/03/18 07:07:48;;;;;;;16.77;11.40;;;;;;;;;;5034530;28;20029;-88
2022/03/18 07:10:14;;;;;;;17.08;12.10;;;;;;;;;;5034223;28;20076;-88
2022/03/18 07:12:43;;;;;;;19.67;13.13;;;;;;;;;;5017565;28;20108;-87
2022/03/18 07:15:09;;;;;;;17.73;11.38;;;;;;;;;;5017442;28;20025;-87
2022/03/18 07:18:01;;;;;;;18.30;11.10;;;;;;;;;;5034238;28;20029;-88
2022/03/18 07:20:36;;;;;;;19.63;12.27;;;;;;;;;;5017428;28;20021;-86
2022/03/18 07:23:04;;;;;;;21.73;14.15;;;;;;;;;;5018111;28;20392;-87
2022/03/18 07:25:31;;;;;;;27.20;15.80;;;;;;;;;;5033690;28;20472;-87
2022/03/18 07:28:01;;;;;;;22.67;15.25;;;;;;;;;;5016629;28;20032;-87
2022/03/18 07:30:28;;;;;;;24.83;15.35;;;;;;;;;;5013032;28;20017;-86
2022/03/18 07:32:56;;;;;;;20.42;13.45;;;;;;;;;;5027620;28;20036;-85
2022/03/18 07:35:23;;;;;;;21.27;12.90;;;;;;;;;;5010556;28;20128;-86
2022/03/18 07:37:49;;;;;;;19.65;12.93;;;;;;;;;;5033348;28;20021;-86
2022/03/18 07:40:18;;;;;;;18.60;11.02;;;;;;;;;;5030483;28;20076;-85
2022/03/18 07:42:48;;;;;;;16.65;10.55;;;;;;;;;;5016151;28;20032;-85
2022/03/18 07:45:27;;;;;;;15.85;9.52;;;;;;;;;;5031135;28;20112;-84
2022/03/18 07:47:55;;;;;;;18.60;12.00;;;;;;;;;;5030113;28;20033;-84
2022/03/18 07:50:26;;;;;;;20.23;13.02;;;;;;;;;;5013483;28;20030;-84
2022/03/18 07:52:54;;;;;;;19.00;10.95;;;;;;;;;;5030038;28;20131;-85
2022/03/18 07:55:22;;;;;;;16.23;10.00;;;;;;;;;;5032028;28;20034;-84
2022/03/18 07:57:49;;;;;;;18.63;11.20;;;;;;;;;;5032165;28;20026;-85
2022/03/18 08:00:17;;;;;;;17.65;10.68;;;;;;;;;;5032591;28;20033;-83
2022/03/18 08:02:44;;;;;;;15.98;9.93;;;;;;;;;;5033667;28;20384;-84
2022/03/18 08:05:12;;;;;;;18.85;11.75;;;;;;;;;;5008423;28;20034;-84
2022/03/18 08:07:39;;;;;;;17.45;11.20;;;;;;;;;;5026782;28;20041;-83
2022/03/18 08:10:13;;;;;;;19.73;12.75;;;;;;;;;;5013661;28;20037;-84
2022/03/18 08:12:42;;;;;;;20.80;12.77;;;;;;;;;;5016086;28;20496;-83
2022/03/18 08:15:13;;;;;;;21.85;12.77;;;;;;;;;;5029716;28;20543;-83
2022/03/18 08:17:40;;;;;;;20.60;12.55;;;;;;;;;;5027799;28;20025;-83
2022/03/18 08:20:12;;;;;;;20.55;13.15;;;;;;;;;;5028041;28;20112;-83
2022/03/18 08:22:38;;;;;;;25.63;13.82;;;;;;;;;;5033812;28;20025;-83
2022/03/18 08:25:05;;;;;;;26.13;14.98;;;;;;;;;;5029756;28;20029;-83
2022/03/18 08:27:32;;;;;;;28.27;16.25;;;;;;;;;;5015356;28;20029;-83
2022/03/18 08:30:00;;;;;;;25.95;16.50;;;;;;;;;;5030134;28;20517;-83
2022/03/18 08:32:27;;;;;;;28.00;16.88;;;;;;;;;;5025517;28;20099;-83
2022/03/18 08:34:54;;;;;;;29.40;18.75;;;;;;;;;;5022980;28;20025;-82
2022/03/18 08:37:56;;;;;;;34.10;19.38;;;;;;;;;;4999978;28;20042;-82
2022/03/18 08:40:10;;;;;;;33.45;20.15;;;;;;;;;;5020615;28;20033;-83
2022/03/18 08:42:37;;;;;;;39.92;22.15;;;;;;;;;;5013304;28;20029;-83
2022/03/18 08:45:04;;;;;;;40.25;23.52;;;;;;;;;;5012990;28;20025;-83
2022/03/18 08:47:32;;;;;;;39.05;23.85;;;;;;;;;;5035466;28;20083;-83
2022/03/18 08:49:58;;;;;;;39.53;22.50;;;;;;;;;;5007145;28;20079;-83
2022/03/18 08:52:25;;;;;;;31.48;18.63;;;;;;;;;;5009724;28;20029;-83
2022/03/18 08:54:51;;;;;;;30.33;18.52;;;;;;;;;;5026633;28;20113;-83
2022/03/18 08:57:19;;;;;;;30.95;17.80;;;;;;;;;;5025686;28;20040;-83
2022/03/18 08:59:45;;;;;;;28.50;17.60;;;;;;;;;;5013081;28;20503;-82
2022/03/18 09:02:12;;;;;;;25.55;15.82;;;;;;;;;;5006286;28;20512;-83
2022/03/18 09:04:38;;;;;;;27.08;17.48;;;;;;;;;;5006420;28;20472;-82
2022/03/18 09:07:06;;;;;;;25.75;15.30;;;;;;;;;;5008001;28;20113;-83
2022/03/18 09:09:32;;;;;;;30.50;18.15;;;;;;;;;;5011330;28;20092;-82
2022/03/18 09:12:01;;;;;;;27.92;16.45;;;;;;;;;;5011587;28;20026;-83
2022/03/18 09:14:27;;;;;;;29.70;17.13;;;;;;;;;;5006440;28;20124;-83
2022/03/18 09:16:53;;;;;;;26.75;15.32;;;;;;;;;;5022016;28;20449;-83
2022/03/18 09:19:23;;;;;;;27.05;15.80;;;;;;;;;;5031701;28;20049;-83
2022/03/18 09:21:50;;;;;;;27.33;15.80;;;;;;;;;;5014432;28;20074;-83
2022/03/18 09:24:16;;;;;;;27.00;15.13;;;;;;;;;;5028207;28;20036;-83
2022/03/18 09:26:44;;;;;;;32.17;16.52;;;;;;;;;;5013067;28;20025;-83
2022/03/18 09:29:11;;;;;;;27.13;15.57;;;;;;;;;;5009678;28;20029;-83
2022/03/18 09:31:38;;;;;;;31.42;17.80;;;;;;;;;;5025806;28;20030;-83
2022/03/18 09:34:04;;;;;;;24.55;14.60;;;;;;;;;;5017393;28;20397;-82
2022/03/18 09:36:35;;;;;;;28.30;15.98;;;;;;;;;;5001151;28;20070;-82
2022/03/18 09:39:04;;;;;;;28.17;15.50;;;;;;;;;;4673102;28;9999598;-82
2022/03/18 09:41:31;;;;;;;28.45;16.85;;;;;;;;;;5003499;28;20021;-82
2022/03/18 09:43:57;;;;;;;29.17;16.20;;;;;;;;;;5008262;28;20388;-82
2022/03/18 09:46:24;;;;;;;26.85;16.88;;;;;;;;;;4998007;28;20026;-83
2022/03/18 09:48:51;;;;;;;29.90;17.85;;;;;;;;;;5003434;28;20041;-83
2022/03/18 09:51:18;;;;;;;30.30;18.42;;;;;;;;;;5013121;28;20436;-83
2022/03/18 09:53:44;;;;;;;30.48;18.58;;;;;;;;;;5005698;28;20084;-81
2022/03/18 09:56:11;;;;;;;36.65;21.77;;;;;;;;;;4998926;28;20108;-82
2022/03/18 09:58:41;;;;;;;32.35;20.70;;;;;;;;;;5018364;28;20474;-83
2022/03/18 10:01:07;;;;;;;31.75;18.20;;;;;;;;;;5001770;28;20060;-82
2022/03/18 10:03:38;;;;;;;26.75;16.65;;;;;;;;;;5025274;28;20088;-82
2022/03/18 10:06:05;;;;;;;23.60;14.65;;;;;;;;;;4999833;28;20026;-83
2022/03/18 10:08:44;;;;;;;28.23;14.48;;;;;;;;;;5020196;28;20054;-83
2022/03/18 10:11:50;;;;;;;29.50;15.55;;;;;;;;;;5009615;28;20528;-83
2022/03/18 10:14:20;;;;;;;28.33;16.83;;;;;;;;;;4976601;28;20392;-89
2022/03/18 10:16:47;;;;;;;36.90;19.80;;;;;;;;;;5001350;28;20033;-89
2022/03/18 10:19:25;;;;;;;32.95;17.90;;;;;;;;;;5008439;28;20029;-90
2022/03/18 10:21:57;;;;;;;29.90;17.08;;;;;;;;;;5014076;28;20014;-89
2022/03/18 10:24:30;;;;;;;30.77;15.82;;;;;;;;;;5015705;28;20388;-90
2022/03/18 10:27:11;;;;;;;30.60;17.27;;;;;;;;;;5028227;28;20543;-88
2022/03/18 10:29:44;;;;;;;33.42;19.05;;;;;;;;;;5005092;28;20034;-89
2022/03/18 10:32:11;;;;;;;41.08;21.67;;;;;;;;;;5015861;28;20117;-89
2022/03/18 10:37:25;;;;;;;37.63;21.00;;;;;;;;;;5029647;28;20522;-89
2022/03/18 10:39:59;;;;;;;41.72;20.65;;;;;;;;;;5024102;28;20030;-89
2022/03/18 10:42:25;;;;;;;39.22;22.35;;;;;;;;;;5010235;28;20020;-89
2022/03/18 10:45:00;;;;;;;42.85;24.23;;;;;;;;;;5016638;28;20040;-88
2022/03/18 10:47:30;;;;;;;42.00;24.25;;;;;;;;;;5012164;28;20026;-88
2022/03/18 10:50:12;;;;;;;46.05;26.33;;;;;;;;;;5029143;28;20084;-88
2022/03/18 10:52:42;;;;;;;48.95;26.80;;;;;;;;;;5030788;28;20064;-89
2022/03/18 10:55:26;;;;;;;59.72;31.73;;;;;;;;;;5035085;28;20045;-89
2022/03/18 10:58:10;;;;;;;59.75;31.42;;;;;;;;;;5029765;28;20854;-89
2022/03/18 11:00:37;;;;;;;60.55;33.50;;;;;;;;;;5033535;28;20036;-87
2022/03/18 11:03:08;;;;;;;49.35;27.88;;;;;;;;;;5005644;28;20044;-87
2022/03/18 11:05:35;;;;;;;55.95;31.50;;;;;;;;;;5025401;28;20037;-87
2022/03/18 11:08:02;;;;;;;48.83;27.70;;;;;;;;;;5027636;28;20025;-89
2022/03/18 11:13:18;;;;;;;47.28;26.27;;;;;;;;;;5033028;28;20554;-90
2022/03/18 11:15:45;;;;;;;58.60;31.00;;;;;;;;;;5018040;28;20504;-90
2022/03/18 11:18:13;;;;;;;60.35;32.28;;;;;;;;;;5012854;28;20112;-90
2022/03/18 11:20:43;;;;;;;60.70;31.70;;;;;;;;;;5016270;28;20035;-90
2022/03/18 11:23:28;;;;;;;57.40;31.90;;;;;;;;;;5029122;28;20021;-90
2022/03/18 11:25:57;;;;;;;51.97;29.33;;;;;;;;;;5008590;28;20030;-90
2022/03/18 11:28:25;;;;;;;61.60;33.67;;;;;;;;;;5032712;28;20021;-90
2022/03/18 11:31:05;;;;;;;53.50;28.77;;;;;;;;;;5015382;28;20029;-90
2022/03/18 11:33:34;;;;;;;50.83;29.08;;;;;;;;;;5033261;28;20033;-90
2022/03/18 11:36:04;;;;;;;57.40;33.15;;;;;;;;;;5014490;28;20481;-90
2022/03/18 11:38:51;;;;;;;65.45;34.13;;;;;;;;;;5024052;28;20477;-89
2022/03/18 11:41:22;;;;;;;54.40;29.38;;;;;;;;;;5025389;28;20026;-90
2022/03/18 11:43:52;;;;;;;55.60;30.35;;;;;;;;;;5008825;28;20022;-86
2022/03/18 11:46:21;;;;;;;54.08;29.95;;;;;;;;;;5028376;28;20026;-86
2022/03/18 11:49:00;;;;;;;50.60;29.23;;;;;;;;;;5011840;28;21226;-86
2022/03/18 11:51:32;;;;;;;45.60;26.33;;;;;;;;;;5012682;28;20025;-86
2022/03/18 11:54:00;;;;;;;46.47;26.60;;;;;;;;;;5011642;28;20542;-86
2022/03/18 11:56:46;;;;;;;50.08;28.42;;;;;;;;;;5007778;28;20026;-86
